createdAt,value
2023-04-24T00:02:24.183Z,99090.41
2023-04-24T00:05:14.749Z,99081.91
2023-04-24T00:08:03.389Z,99081.72
2023-04-24T00:10:53.668Z,99087.13
2023-04-24T00:13:42.373Z,99090.78
2023-04-24T00:16:31.007Z,99079.00
2023-04-24T00:19:22.194Z,99095.75
2023-04-24T00:22:12.318Z,99115.28
2023-04-24T00:25:01.089Z,99100.50
2023-04-24T00:27:49.706Z,99100.00
2023-04-24T00:30:38.348Z,99108.41
2023-04-24T00:33:27.157Z,99095.16
2023-04-24T00:36:15.841Z,99094.56
2023-04-24T00:39:05.986Z,99090.28
2023-04-24T00:41:55.125Z,99103.06
2023-04-24T00:44:43.850Z,99101.53
2023-04-24T00:47:32.973Z,99095.63
2023-04-24T00:50:23.393Z,99096.09
2023-04-24T00:53:12.093Z,99092.03
2023-04-24T00:56:02.917Z,99102.81
2023-04-24T00:58:52.231Z,99092.03
2023-04-24T01:01:43.249Z,99090.03
2023-04-24T01:04:32.210Z,99083.31
2023-04-24T01:07:22.694Z,99087.25
2023-04-24T01:10:12.205Z,99080.63
2023-04-24T01:13:02.375Z,99084.34
2023-04-24T01:15:51.387Z,99088.53
2023-04-24T01:18:40.171Z,99095.97
2023-04-24T01:21:29.810Z,99093.63
2023-04-24T01:24:20.749Z,99085.84
2023-04-24T01:27:10.023Z,99087.59
2023-04-24T01:29:58.960Z,99098.63
2023-04-24T01:32:48.318Z,99086.78
2023-04-24T01:35:38.290Z,99088.41
2023-04-24T01:38:27.013Z,99095.28
2023-04-24T01:41:16.982Z,99099.34
2023-04-24T01:44:05.986Z,99092.72
2023-04-24T01:46:55.162Z,99092.25
2023-04-24T01:49:44.105Z,99089.13
2023-04-24T01:52:34.336Z,99087.03
2023-04-24T01:55:23.149Z,99082.72
2023-04-24T01:58:13.390Z,99084.00
2023-04-24T02:01:02.492Z,99081.78
2023-04-24T02:03:51.262Z,99088.63
2023-04-24T02:06:40.398Z,99084.22
2023-04-24T02:09:29.061Z,99086.09
2023-04-24T02:12:18.485Z,99080.25
2023-04-24T02:15:09.038Z,99093.19
2023-04-24T02:17:57.638Z,99088.53
2023-04-24T02:20:46.360Z,99085.41
2023-04-24T02:23:34.949Z,99084.22
2023-04-24T02:26:23.594Z,99079.84
2023-04-24T02:29:12.399Z,99092.81
2023-04-24T02:32:02.468Z,99079.94
2023-04-24T02:34:51.131Z,99087.94
2023-04-24T02:37:39.835Z,99081.34
2023-04-24T02:40:28.597Z,99087.59
2023-04-24T02:43:17.200Z,99082.97
2023-04-24T02:46:05.987Z,99084.34
2023-04-24T02:49:00.343Z,99086.78
2023-04-24T02:51:48.957Z,99093.03
2023-04-24T02:54:37.641Z,99079.94
2023-04-24T02:57:26.356Z,99083.88
2023-04-24T03:00:16.984Z,99078.31
2023-04-24T03:03:06.535Z,99069.69
2023-04-24T03:05:56.781Z,99075.41
2023-04-24T03:08:45.391Z,99073.31
2023-04-24T03:11:33.978Z,99071.00
2023-04-24T03:14:22.639Z,99075.28
2023-04-24T03:17:11.304Z,99071.25
2023-04-24T03:19:59.887Z,99068.22
2023-04-24T03:22:49.989Z,99063.81
2023-04-24T03:25:38.585Z,99073.91
2023-04-24T03:28:27.387Z,99070.53
2023-04-24T03:31:16.499Z,99064.16
2023-04-24T03:34:05.154Z,99076.09
2023-04-24T03:36:54.449Z,99075.97
2023-04-24T03:39:44.851Z,99078.22
2023-04-24T03:42:33.841Z,99083.53
2023-04-24T03:45:22.652Z,99086.44
2023-04-24T03:48:11.283Z,99090.03
2023-04-24T03:51:00.012Z,99089.56
2023-04-24T03:53:48.727Z,99094.47
2023-04-24T03:56:38.791Z,99092.25
2023-04-24T03:59:27.375Z,99099.34
2023-04-24T04:02:16.233Z,99101.44
2023-04-24T04:05:04.945Z,99114.53
2023-04-24T04:07:53.664Z,99111.41
2023-04-24T04:10:42.433Z,99111.41
2023-04-24T04:13:32.428Z,99116.97
2023-04-24T04:16:21.160Z,99108.03
2023-04-24T04:19:09.862Z,99105.59
2023-04-24T04:21:58.434Z,99108.97
2023-04-24T04:24:47.265Z,99116.50
2023-04-24T04:27:36.340Z,99112.78
2023-04-24T04:30:26.911Z,99111.66
2023-04-24T04:33:15.737Z,99112.13
2023-04-24T04:36:05.019Z,99110.25
2023-04-24T04:38:53.642Z,99114.88
2023-04-24T04:41:42.697Z,99112.31
2023-04-24T04:44:31.703Z,99107.44
2023-04-24T04:47:24.266Z,99107.56
2023-04-24T04:50:12.958Z,99111.75
2023-04-24T04:53:01.621Z,99102.09
2023-04-24T04:55:50.333Z,99116.50
2023-04-24T04:58:38.892Z,99107.44
2023-04-24T05:01:28.616Z,99120.34
2023-04-24T05:04:18.777Z,99120.69
2023-04-24T05:07:07.682Z,99118.13
2023-04-24T05:09:56.284Z,99116.03
2023-04-24T05:12:46.272Z,99118.22
2023-04-24T05:15:35.240Z,99120.69
2023-04-24T05:18:23.820Z,99122.88
2023-04-24T05:21:14.026Z,99119.50
2023-04-24T05:24:02.567Z,99125.69
2023-04-24T05:26:51.389Z,99128.69
2023-04-24T05:29:40.028Z,99127.53
2023-04-24T05:32:29.031Z,99126.53
2023-04-24T05:35:18.281Z,99121.63
2023-04-24T05:38:08.229Z,99126.53
2023-04-24T05:40:56.871Z,99118.25
2023-04-24T05:43:45.532Z,99121.38
2023-04-24T05:46:34.474Z,99116.50
2023-04-24T05:49:23.274Z,99122.81
2023-04-24T05:52:12.124Z,99117.91
2023-04-24T05:55:02.142Z,99123.94
2023-04-24T05:57:50.704Z,99132.19
2023-04-24T06:00:40.828Z,99134.88
2023-04-24T06:03:29.962Z,99138.31
2023-04-24T06:06:23.073Z,99134.88
2023-04-24T06:09:11.720Z,99140.88
2023-04-24T06:12:01.995Z,99133.72
2023-04-24T06:14:51.238Z,99136.97
2023-04-24T06:17:40.043Z,99131.63
2023-04-24T06:20:29.083Z,99131.38
2023-04-24T06:23:17.738Z,99137.09
2023-04-24T06:26:07.096Z,99132.06
2023-04-24T06:28:57.200Z,99134.31
2023-04-24T06:31:46.021Z,99136.16
2023-04-24T06:34:35.074Z,99133.81
2023-04-24T06:37:24.077Z,99148.22
2023-04-24T06:40:13.764Z,99142.56
2023-04-24T06:43:03.738Z,99146.28
2023-04-24T06:45:53.776Z,99143.47
2023-04-24T06:48:42.790Z,99148.38
2023-04-24T06:51:33.936Z,99147.19
2023-04-24T06:54:22.618Z,99148.09
2023-04-24T06:57:12.432Z,99144.38
2023-04-24T07:00:01.236Z,99145.69
2023-04-24T07:02:51.631Z,99144.28
2023-04-24T07:05:41.002Z,99146.13
2023-04-24T07:08:31.477Z,99148.22
2023-04-24T07:11:21.330Z,99146.38
2023-04-24T07:14:11.071Z,99144.84
2023-04-24T07:16:59.911Z,99143.00
2023-04-24T07:19:49.830Z,99148.00
2023-04-24T07:22:38.515Z,99155.06
2023-04-24T07:25:27.238Z,99158.78
2023-04-24T07:28:16.024Z,99159.97
2023-04-24T07:31:06.125Z,99155.06
2023-04-24T07:33:54.945Z,99157.03
2023-04-24T07:36:45.125Z,99164.84
2023-04-24T07:39:34.083Z,99158.78
2023-04-24T07:42:22.788Z,99168.56
2023-04-24T07:45:11.749Z,99166.47
2023-04-24T07:48:00.674Z,99167.50
2023-04-24T07:50:49.234Z,99159.97
2023-04-24T07:53:39.216Z,99169.13
2023-04-24T07:56:28.167Z,99161.88
2023-04-24T07:59:17.175Z,99169.59
2023-04-24T08:02:07.134Z,99172.41
2023-04-24T08:04:56.324Z,99173.47
2023-04-24T08:07:47.324Z,99168.25
2023-04-24T08:10:37.502Z,99158.34
2023-04-24T08:13:26.364Z,99160.88
2023-04-24T08:16:15.724Z,99169.47
2023-04-24T08:19:04.424Z,99173.91
2023-04-24T08:21:52.963Z,99173.53
2023-04-24T08:24:41.909Z,99179.25
2023-04-24T08:27:32.359Z,99178.19
2023-04-24T08:30:23.245Z,99177.91
2023-04-24T08:33:11.959Z,99184.16
2023-04-24T08:36:01.771Z,99171.81
2023-04-24T08:38:50.512Z,99173.47
2023-04-24T08:41:40.210Z,99181.25
2023-04-24T08:44:30.392Z,99178.22
2023-04-24T08:47:20.520Z,99184.88
2023-04-24T08:50:13.654Z,99185.28
2023-04-24T08:53:05.163Z,99179.25
2023-04-24T08:55:54.351Z,99178.34
2023-04-24T08:58:43.975Z,99179.38
2023-04-24T09:01:36.181Z,99187.59
2023-04-24T09:04:26.812Z,99184.22
2023-04-24T09:07:19.054Z,99190.72
2023-04-24T09:10:10.143Z,99182.59
2023-04-24T09:12:59.793Z,99181.78
2023-04-24T09:15:48.536Z,99184.59
2023-04-24T09:18:38.561Z,99189.47
2023-04-24T09:21:33.709Z,99191.31
2023-04-24T09:24:24.473Z,99194.13
2023-04-24T09:27:15.822Z,99187.13
2023-04-24T09:30:06.018Z,99188.38
2023-04-24T09:33:12.725Z,99181.56
2023-04-24T09:36:03.432Z,99187.69
2023-04-24T09:39:00.194Z,99188.28
2023-04-24T09:41:50.360Z,99182.72
2023-04-24T09:44:39.628Z,99181.09
2023-04-24T09:47:28.371Z,99188.97
2023-04-24T09:50:21.247Z,99190.94
2023-04-24T09:53:12.708Z,99188.97
2023-04-24T09:56:05.443Z,99184.09
2023-04-24T09:58:54.151Z,99178.63
2023-04-24T10:01:45.467Z,99177.84
2023-04-24T10:04:34.357Z,99181.09
2023-04-24T10:07:23.088Z,99182.72
2023-04-24T10:10:14.183Z,99182.59
2023-04-24T10:13:03.849Z,99179.56
2023-04-24T10:15:53.193Z,99175.75
2023-04-24T10:18:45.094Z,99172.13
2023-04-24T10:21:34.825Z,99175.50
2023-04-24T10:24:23.395Z,99175.03
2023-04-24T10:27:16.292Z,99170.06
2023-04-24T10:30:05.278Z,99167.06
2023-04-24T10:32:53.954Z,99168.56
2023-04-24T10:35:45.601Z,99159.88
2023-04-24T10:38:34.541Z,99166.72
2023-04-24T10:41:24.333Z,99154.91
2023-04-24T10:44:16.064Z,99160.09
2023-04-24T10:47:05.076Z,99160.69
2023-04-24T10:49:53.972Z,99161.25
2023-04-24T10:52:49.411Z,99159.50
2023-04-24T10:55:49.438Z,99171.81
2023-04-24T10:58:45.686Z,99173.31
2023-04-24T11:01:36.081Z,99165.75
2023-04-24T11:04:36.195Z,99161.50
2023-04-24T11:07:24.838Z,99161.94
2023-04-24T11:10:28.113Z,99160.09
2023-04-24T11:13:23.611Z,99163.22
2023-04-24T11:16:16.085Z,99171.44
2023-04-24T11:19:08.559Z,99166.81
2023-04-24T11:22:01.491Z,99180.03
2023-04-24T11:24:52.960Z,99179.72
2023-04-24T11:27:44.910Z,99180.75
2023-04-24T11:30:36.275Z,99179.47
2023-04-24T11:33:25.311Z,99180.97
2023-04-24T11:36:15.609Z,99180.97
2023-04-24T11:39:04.483Z,99173.66
2023-04-24T11:41:53.569Z,99175.28
2023-04-24T11:44:44.168Z,99170.25
2023-04-24T11:47:34.763Z,99175.03
2023-04-24T11:50:26.704Z,99173.97
2023-04-24T11:53:16.890Z,99176.31
2023-04-24T11:56:06.813Z,99171.78
2023-04-24T11:58:56.177Z,99178.28
2023-04-24T12:01:57.867Z,99178.38
2023-04-24T12:04:46.780Z,99182.00
2023-04-24T12:07:44.151Z,99192.94
2023-04-24T12:10:35.702Z,99186.44
2023-04-24T12:13:24.311Z,99180.03
2023-04-24T12:16:13.066Z,99191.88
2023-04-24T12:19:01.985Z,99182.94
2023-04-24T12:22:02.432Z,99180.63
2023-04-24T12:25:06.394Z,99176.75
2023-04-24T12:27:58.175Z,99177.59
2023-04-24T12:30:51.237Z,99182.94
2023-04-24T12:33:39.928Z,99184.34
2023-04-24T12:36:28.868Z,99176.66
2023-04-24T12:39:18.542Z,99184.81
2023-04-24T12:42:07.206Z,99192.25
2023-04-24T12:45:02.790Z,99190.13
2023-04-24T12:47:51.474Z,99206.88
2023-04-24T12:50:41.457Z,99205.91
2023-04-24T12:53:32.147Z,99206.50
2023-04-24T12:56:21.665Z,99204.28
2023-04-24T12:59:10.328Z,99192.09
2023-04-24T13:02:00.501Z,99199.84
2023-04-24T13:04:49.685Z,99192.19
2023-04-24T13:07:38.274Z,99185.75
2023-04-24T13:10:26.928Z,99188.91
2023-04-24T13:13:15.557Z,99179.53
2023-04-24T13:16:04.126Z,99179.63
2023-04-24T13:18:54.038Z,99196.69
2023-04-24T13:21:42.611Z,99185.56
2023-04-24T13:24:32.134Z,99192.28
2023-04-24T13:27:21.123Z,99189.72
2023-04-24T13:30:10.773Z,99196.13
2023-04-24T13:32:59.382Z,99204.22
2023-04-24T13:35:49.298Z,99187.84
2023-04-24T13:38:37.961Z,99196.28
2023-04-24T13:41:26.664Z,99194.50
2023-04-24T13:44:15.234Z,99190.81
2023-04-24T13:47:03.798Z,99189.19
2023-04-24T13:49:52.631Z,99176.28
2023-04-24T13:52:42.631Z,99184.84
2023-04-24T13:55:31.885Z,99186.25
2023-04-24T13:58:20.525Z,99201.56
2023-04-24T14:01:09.056Z,99181.06
2023-04-24T14:03:58.718Z,99178.41
2023-04-24T14:06:47.329Z,99170.56
2023-04-24T14:09:37.258Z,99172.38
2023-04-24T14:12:26.911Z,99181.16
2023-04-24T14:15:15.585Z,99173.09
2023-04-24T14:18:06.308Z,99174.66
2023-04-24T14:20:55.096Z,99175.97
2023-04-24T14:23:43.816Z,99164.59
2023-04-24T14:26:34.268Z,99165.97
2023-04-24T14:29:22.884Z,99166.22
2023-04-24T14:32:11.402Z,99163.91
2023-04-24T14:35:00.021Z,99161.44
2023-04-24T14:37:49.389Z,99167.22
2023-04-24T14:41:04.847Z,99172.09
2023-04-24T14:43:48.309Z,99172.88
2023-04-24T14:46:37.032Z,99167.66
2023-04-24T14:49:26.025Z,99171.72
2023-04-24T14:52:14.641Z,99177.66
2023-04-24T14:55:03.384Z,99180.56
2023-04-24T14:57:52.031Z,99183.69
2023-04-24T15:00:42.034Z,99174.97
2023-04-24T15:03:31.031Z,99182.50
2023-04-24T15:06:19.819Z,99187.41
2023-04-24T15:09:08.441Z,99184.75
2023-04-24T15:11:57.502Z,99179.53
2023-04-24T15:14:46.035Z,99199.59
2023-04-24T15:17:36.268Z,99191.13
2023-04-24T15:20:25.008Z,99189.63
2023-04-24T15:23:13.733Z,99189.97
2023-04-24T15:26:02.594Z,99195.31
2023-04-24T15:28:52.617Z,99190.44
2023-04-24T15:31:41.476Z,99200.91
2023-04-24T15:34:33.024Z,99202.75
2023-04-24T15:37:21.579Z,99204.69
2023-04-24T15:40:12.565Z,99209.53
2023-04-24T15:43:01.288Z,99207.34
2023-04-24T15:45:52.194Z,99214.06
2023-04-24T15:48:42.234Z,99215.25
2023-04-24T15:51:32.782Z,99214.41
2023-04-24T15:54:21.598Z,99217.19
2023-04-24T15:57:10.246Z,99221.13
2023-04-24T15:59:58.950Z,99223.47
2023-04-24T16:02:47.694Z,99221.69
2023-04-24T16:05:36.569Z,99220.06
2023-04-24T16:08:26.581Z,99228.28
2023-04-24T16:11:15.232Z,99226.66
2023-04-24T16:14:03.900Z,99234.66
2023-04-24T16:16:52.609Z,99232.69
2023-04-24T16:19:43.473Z,99236.09
2023-04-24T16:22:34.196Z,99237.81
2023-04-24T16:25:24.263Z,99242.78
2023-04-24T16:28:13.997Z,99241.31
2023-04-24T16:31:03.771Z,99253.00
2023-04-24T16:33:52.389Z,99257.16
2023-04-24T16:36:41.028Z,99259.63
2023-04-24T16:39:29.642Z,99268.94
2023-04-24T16:42:19.596Z,99272.59
2023-04-24T16:45:09.572Z,99269.63
2023-04-24T16:47:58.277Z,99272.47
2023-04-24T16:50:47.423Z,99273.66
2023-04-24T16:53:36.167Z,99274.63
2023-04-24T16:56:24.968Z,99277.44
2023-04-24T16:59:15.303Z,99274.22
2023-04-24T17:02:04.127Z,99282.06
2023-04-24T17:04:52.912Z,99293.00
2023-04-24T17:07:42.102Z,99278.81
2023-04-24T17:10:30.819Z,99281.50
2023-04-24T17:13:19.468Z,99279.97
2023-04-24T17:16:09.677Z,99291.09
2023-04-24T17:18:58.238Z,99298.03
2023-04-24T17:21:46.943Z,99299.53
2023-04-24T17:24:35.500Z,99305.78
2023-04-24T17:27:25.091Z,99308.47
2023-04-24T17:30:14.850Z,99311.25
2023-04-24T17:33:05.012Z,99312.28
2023-04-24T17:35:54.046Z,99318.97
2023-04-24T17:38:42.710Z,99338.81
2023-04-24T17:41:31.282Z,99339.84
2023-04-24T17:44:19.842Z,99345.06
2023-04-24T17:47:08.924Z,99345.66
2023-04-24T17:49:58.952Z,99343.88
2023-04-24T17:52:47.616Z,99352.50
2023-04-24T17:55:36.598Z,99361.28
2023-04-24T17:58:25.271Z,99359.03
2023-04-24T18:01:13.864Z,99362.63
2023-04-24T18:04:02.576Z,99372.84
2023-04-24T18:06:52.753Z,99374.47
2023-04-24T18:09:41.387Z,99384.34
2023-04-24T18:12:29.940Z,99390.78
2023-04-24T18:15:18.646Z,99395.25
2023-04-24T18:18:07.347Z,99404.09
2023-04-24T18:20:56.395Z,99405.25
2023-04-24T18:23:46.640Z,99411.50
2023-04-24T18:26:35.162Z,99417.28
2023-04-24T18:29:23.696Z,99425.09
2023-04-24T18:32:12.281Z,99418.53
2023-04-24T18:35:01.323Z,99429.97
2023-04-24T18:37:50.210Z,99422.53
2023-04-24T18:40:40.157Z,99435.53
2023-04-24T18:43:28.722Z,99440.78
2023-04-24T18:46:17.533Z,99445.66
2023-04-24T18:49:06.151Z,99444.78
2023-04-24T18:51:54.984Z,99449.09
2023-04-24T18:54:44.205Z,99444.50
2023-04-24T18:57:34.503Z,99449.16
2023-04-24T19:00:23.405Z,99460.97
2023-04-24T19:03:12.177Z,99458.03
2023-04-24T19:06:00.837Z,99458.28
2023-04-24T19:08:49.563Z,99469.09
2023-04-24T19:11:38.864Z,99469.47
2023-04-24T19:14:28.933Z,99470.28
2023-04-24T19:17:23.329Z,99477.63
2023-04-24T19:20:13.239Z,99475.19
2023-04-24T19:23:01.991Z,99478.91
2023-04-24T19:25:50.835Z,99477.28
2023-04-24T19:28:39.432Z,99484.00
2023-04-24T19:31:29.760Z,99485.34
2023-04-24T19:34:18.344Z,99490.72
2023-04-24T19:37:06.933Z,99497.38
2023-04-24T19:39:55.808Z,99486.25
2023-04-24T19:42:45.937Z,99491.75
2023-04-24T19:45:34.739Z,99496.31
2023-04-24T19:48:24.764Z,99490.41
2023-04-24T19:51:13.531Z,99496.56
2023-04-24T19:54:02.013Z,99486.78
2023-04-24T19:56:50.644Z,99487.34
2023-04-24T19:59:39.346Z,99484.97
2023-04-24T20:02:28.066Z,99498.66
2023-04-24T20:05:18.333Z,99488.31
2023-04-24T20:08:07.062Z,99491.75
2023-04-24T20:10:57.813Z,99501.84
2023-04-24T20:13:46.882Z,99499.19
2023-04-24T20:16:35.789Z,99505.19
2023-04-24T20:19:24.781Z,99511.44
2023-04-24T20:22:15.049Z,99510.41
2023-04-24T20:25:04.014Z,99507.59
2023-04-24T20:27:52.616Z,99510.41
2023-04-24T20:30:41.214Z,99511.53
2023-04-24T20:33:30.580Z,99509.25
2023-04-24T20:36:19.350Z,99513.38
2023-04-24T20:39:12.066Z,99513.53
2023-04-24T20:42:00.835Z,99514.13
2023-04-24T20:44:49.720Z,99505.53
2023-04-24T20:47:38.418Z,99506.41
2023-04-24T20:50:27.812Z,99514.25
2023-04-24T20:53:16.312Z,99514.59
2023-04-24T20:56:08.707Z,99516.22
2023-04-24T20:58:57.714Z,99514.59
2023-04-24T21:01:48.516Z,99513.38
2023-04-24T21:04:39.663Z,99527.31
2023-04-24T21:07:28.332Z,99530.16
2023-04-24T21:10:16.909Z,99523.56
2023-04-24T21:13:06.822Z,99517.38
2023-04-24T21:15:55.725Z,99524.75
2023-04-24T21:18:44.349Z,99529.88
2023-04-24T21:21:34.076Z,99520.19
2023-04-24T21:24:23.233Z,99518.44
2023-04-24T21:27:12.048Z,99522.72
2023-04-24T21:30:02.337Z,99520.28
2023-04-24T21:32:52.206Z,99518.44
2023-04-24T21:35:40.725Z,99519.69
2023-04-24T21:38:29.286Z,99516.56
2023-04-24T21:41:17.827Z,99513.22
2023-04-24T21:44:06.389Z,99510.41
2023-04-24T21:46:59.383Z,99509.59
2023-04-24T21:49:47.956Z,99505.19
2023-04-24T21:52:37.101Z,99505.59
2023-04-24T21:55:26.842Z,99507.00
2023-04-24T21:58:15.558Z,99507.28
2023-04-24T22:01:04.269Z,99498.75
2023-04-24T22:03:55.342Z,99488.66
2023-04-24T22:06:44.317Z,99499.25
2023-04-24T22:09:33.001Z,99499.25
2023-04-24T22:12:21.860Z,99493.91
2023-04-24T22:15:11.009Z,99496.84
2023-04-24T22:18:02.011Z,99500.31
2023-04-24T22:20:51.937Z,99493.91
2023-04-24T22:23:40.479Z,99498.69
2023-04-24T22:26:29.058Z,99490.56
2023-04-24T22:29:20.048Z,99489.84
2023-04-24T22:32:08.634Z,99497.19
2023-04-24T22:34:57.219Z,99494.38
2023-04-24T22:37:48.120Z,99497.13
2023-04-24T22:40:36.954Z,99503.28
2023-04-24T22:43:25.652Z,99495.63
2023-04-24T22:46:14.300Z,99489.50
2023-04-24T22:49:02.960Z,99495.41
2023-04-24T22:51:51.756Z,99498.81
2023-04-24T22:54:41.815Z,99496.47
2023-04-24T22:57:30.740Z,99497.63
2023-04-24T23:00:19.563Z,99504.47
2023-04-24T23:03:08.461Z,99512.50
2023-04-24T23:05:57.112Z,99509.66
2023-04-24T23:08:47.792Z,99517.91
2023-04-24T23:11:37.738Z,99517.47
2023-04-24T23:14:26.479Z,99511.66
2023-04-24T23:17:15.119Z,99515.84
2023-04-24T23:20:04.572Z,99518.13
2023-04-24T23:22:53.150Z,99513.97
2023-04-24T23:25:41.870Z,99520.34
2023-04-24T23:28:31.775Z,99512.25
2023-04-24T23:31:20.710Z,99507.00
2023-04-24T23:34:09.259Z,99503.56
2023-04-24T23:36:57.852Z,99507.63
2023-04-24T23:39:46.488Z,99500.66
2023-04-24T23:42:35.667Z,99495.75
2023-04-24T23:45:25.565Z,99497.78
2023-04-24T23:48:14.166Z,99496.53
2023-04-24T23:51:02.799Z,99494.25
2023-04-24T23:53:53.320Z,99501.06
2023-04-24T23:56:41.841Z,99489.16
2023-04-24T23:59:30.676Z,99496.09
